sensor_id;sensor_type;location;lat;lon;timestamp;temperature;humidity
32839;DHT22;19182;41.820;12.808;2024-03-02T00:04:07;8.20;99.90
32839;DHT22;19182;41.820;12.808;2024-03-02T00:23:49;8.20;99.90
32839;DHT22;19182;41.820;12.808;2024-03-02T00:31:20;8.20;99.90
32839;DHT22;19182;41.820;12.808;2024-03-02T00:33:49;8.10;99.90
32839;DHT22;19182;41.820;12.808;2024-03-02T00:36:22;8.20;99.90
32839;DHT22;19182;41.820;12.808;2024-03-02T00:41:35;8.20;99.90
32839;DHT22;19182;41.820;12.808;2024-03-02T00:51:54;8.20;99.90
32839;DHT22;19182;41.820;12.808;2024-03-02T00:54:25;8.20;99.90
32839;DHT22;19182;41.820;12.808;2024-03-02T00:59:22;8.20;99.90
32839;DHT22;19182;41.820;12.808;2024-03-02T01:01:52;8.20;99.90
32839;DHT22;19182;41.820;12.808;2024-03-02T01:09:18;8.20;99.90
32839;DHT22;19182;41.820;12.808;2024-03-02T01:26:33;8.20;99.90
32839;DHT22;19182;41.820;12.808;2024-03-02T01:28:59;8.10;99.90
32839;DHT22;19182;41.820;12.808;2024-03-02T01:36:16;8.20;99.90
32839;DHT22;19182;41.820;12.808;2024-03-02T01:58:15;8.10;99.90
32839;DHT22;19182;41.820;12.808;2024-03-02T02:20:23;8.10;99.90
32839;DHT22;19182;41.820;12.808;2024-03-02T03:04:40;8.20;99.90
32839;DHT22;19182;41.820;12.808;2024-03-02T03:14:36;8.10;99.90
32839;DHT22;19182;41.820;12.808;2024-03-02T03:56:08;8.20;99.90
32839;DHT22;19182;41.820;12.808;2024-03-02T03:58:34;8.30;99.90
32839;DHT22;19182;41.820;12.808;2024-03-02T04:10:57;8.20;99.90
32839;DHT22;19182;41.820;12.808;2024-03-02T04:13:22;8.20;99.90
32839;DHT22;19182;41.820;12.808;2024-03-02T04:15:48;8.30;99.90
32839;DHT22;19182;41.820;12.808;2024-03-02T04:18:14;8.30;99.90
32839;DHT22;19182;41.820;12.808;2024-03-02T04:20:39;8.20;99.90
32839;DHT22;19182;41.820;12.808;2024-03-02T04:23:05;8.20;99.90
32839;DHT22;19182;41.820;12.808;2024-03-02T04:25:31;8.20;99.90
32839;DHT22;19182;41.820;12.808;2024-03-02T04:27:56;8.20;99.90
32839;DHT22;19182;41.820;12.808;2024-03-02T04:30:22;8.10;99.90
32839;DHT22;19182;41.820;12.808;2024-03-02T04:32:50;8.10;99.90
32839;DHT22;19182;41.820;12.808;2024-03-02T04:35:16;8.10;99.90
32839;DHT22;19182;41.820;12.808;2024-03-02T04:37:42;8.10;99.90
32839;DHT22;19182;41.820;12.808;2024-03-02T04:40:08;8.10;99.90
32839;DHT22;19182;41.820;12.808;2024-03-02T04:42:40;8.20;99.90
32839;DHT22;19182;41.820;12.808;2024-03-02T04:45:09;8.10;99.90
32839;DHT22;19182;41.820;12.808;2024-03-02T04:47:37;8.10;99.90
32839;DHT22;19182;41.820;12.808;2024-03-02T04:50:03;8.10;99.90
32839;DHT22;19182;41.820;12.808;2024-03-02T04:52:29;8.20;99.90
32839;DHT22;19182;41.820;12.808;2024-03-02T04:54:55;8.20;99.90
32839;DHT22;19182;41.820;12.808;2024-03-02T04:57:45;8.20;99.90
32839;DHT22;19182;41.820;12.808;2024-03-02T05:00:12;8.20;99.90
32839;DHT22;19182;41.820;12.808;2024-03-02T05:02:38;8.30;99.90
32839;DHT22;19182;41.820;12.808;2024-03-02T05:05:04;8.20;99.90
32839;DHT22;19182;41.820;12.808;2024-03-02T05:07:30;8.20;99.90
32839;DHT22;19182;41.820;12.808;2024-03-02T05:09:55;8.30;99.90
32839;DHT22;19182;41.820;12.808;2024-03-02T05:12:21;8.20;99.90
32839;DHT22;19182;41.820;12.808;2024-03-02T05:17:39;8.30;99.90
32839;DHT22;19182;41.820;12.808;2024-03-02T05:20:06;8.40;99.90
32839;DHT22;19182;41.820;12.808;2024-03-02T05:22:35;8.30;99.90
32839;DHT22;19182;41.820;12.808;2024-03-02T05:25:02;8.30;99.90
32839;DHT22;19182;41.820;12.808;2024-03-02T05:27:28;8.20;99.90
32839;DHT22;19182;41.820;12.808;2024-03-02T05:32:20;8.30;99.90
32839;DHT22;19182;41.820;12.808;2024-03-02T05:34:46;8.30;99.90
32839;DHT22;19182;41.820;12.808;2024-03-02T05:37:11;8.40;99.90
32839;DHT22;19182;41.820;12.808;2024-03-02T05:39:40;8.40;99.90
32839;DHT22;19182;41.820;12.808;2024-03-02T05:42:05;8.40;99.90
32839;DHT22;19182;41.820;12.808;2024-03-02T05:44:33;8.40;99.90
32839;DHT22;19182;41.820;12.808;2024-03-02T05:46:59;8.30;99.90
32839;DHT22;19182;41.820;12.808;2024-03-02T05:49:25;8.30;99.90
32839;DHT22;19182;41.820;12.808;2024-03-02T05:51:51;8.30;99.90
32839;DHT22;19182;41.820;12.808;2024-03-02T05:54:16;8.30;99.90
32839;DHT22;19182;41.820;12.808;2024-03-02T05:56:42;8.30;99.90
32839;DHT22;19182;41.820;12.808;2024-03-02T05:59:08;8.40;99.90
32839;DHT22;19182;41.820;12.808;2024-03-02T06:01:42;8.40;99.90
32839;DHT22;19182;41.820;12.808;2024-03-02T06:04:08;8.40;99.90
32839;DHT22;19182;41.820;12.808;2024-03-02T06:14:07;8.50;99.90
32839;DHT22;19182;41.820;12.808;2024-03-02T06:16:35;8.40;99.90
32839;DHT22;19182;41.820;12.808;2024-03-02T06:21:27;8.50;99.90
32839;DHT22;19182;41.820;12.808;2024-03-02T06:23:53;8.50;99.90
32839;DHT22;19182;41.820;12.808;2024-03-02T06:26:19;8.60;99.90
32839;DHT22;19182;41.820;12.808;2024-03-02T06:28:46;8.60;99.90
32839;DHT22;19182;41.820;12.808;2024-03-02T06:33:39;8.60;99.90
32839;DHT22;19182;41.820;12.808;2024-03-02T06:36:07;8.60;99.90
32839;DHT22;19182;41.820;12.808;2024-03-02T06:38:37;8.70;99.90
32839;DHT22;19182;41.820;12.808;2024-03-02T06:41:03;8.80;99.90
32839;DHT22;19182;41.820;12.808;2024-03-02T06:43:30;8.70;99.90
32839;DHT22;19182;41.820;12.808;2024-03-02T06:45:57;8.80;99.90
32839;DHT22;19182;41.820;12.808;2024-03-02T06:48:22;8.70;99.90
32839;DHT22;19182;41.820;12.808;2024-03-02T06:50:50;8.80;99.90
32839;DHT22;19182;41.820;12.808;2024-03-02T06:53:18;8.80;99.90
32839;DHT22;19182;41.820;12.808;2024-03-02T06:55:45;8.80;99.90
32839;DHT22;19182;41.820;12.808;2024-03-02T06:58:14;8.90;99.90
32839;DHT22;19182;41.820;12.808;2024-03-02T07:00:43;8.90;99.90
32839;DHT22;19182;41.820;12.808;2024-03-02T07:03:09;9.00;99.90
32839;DHT22;19182;41.820;12.808;2024-03-02T07:05:35;8.90;99.90
32839;DHT22;19182;41.820;12.808;2024-03-02T07:08:01;8.90;99.90
32839;DHT22;19182;41.820;12.808;2024-03-02T07:12:55;9.00;99.90
32839;DHT22;19182;41.820;12.808;2024-03-02T07:15:21;9.10;99.90
32839;DHT22;19182;41.820;12.808;2024-03-02T07:18:03;9.20;99.90
32839;DHT22;19182;41.820;12.808;2024-03-02T07:20:29;11.10;99.90
32839;DHT22;19182;41.820;12.808;2024-03-02T07:22:55;9.20;99.90
32839;DHT22;19182;41.820;12.808;2024-03-02T07:25:23;9.30;99.90
32839;DHT22;19182;41.820;12.808;2024-03-02T07:27:49;9.30;99.90
32839;DHT22;19182;41.820;12.808;2024-03-02T07:30:16;9.30;99.90
32839;DHT22;19182;41.820;12.808;2024-03-02T07:32:42;9.30;99.90
32839;DHT22;19182;41.820;12.808;2024-03-02T07:35:14;9.40;99.90
32839;DHT22;19182;41.820;12.808;2024-03-02T07:37:41;9.50;99.90
32839;DHT22;19182;41.820;12.808;2024-03-02T07:40:08;9.40;99.90
32839;DHT22;19182;41.820;12.808;2024-03-02T07:42:38;9.30;99.90
32839;DHT22;19182;41.820;12.808;2024-03-02T07:45:05;9.30;99.90
32839;DHT22;19182;41.820;12.808;2024-03-02T07:47:35;9.30;99.90
32839;DHT22;19182;41.820;12.808;2024-03-02T07:50:02;9.40;99.90
32839;DHT22;19182;41.820;12.808;2024-03-02T07:52:28;9.30;99.90
32839;DHT22;19182;41.820;12.808;2024-03-02T07:54:54;9.50;99.90
32839;DHT22;19182;41.820;12.808;2024-03-02T07:57:21;9.50;99.90
32839;DHT22;19182;41.820;12.808;2024-03-02T07:59:47;9.60;99.90
32839;DHT22;19182;41.820;12.808;2024-03-02T08:02:14;9.70;99.90
32839;DHT22;19182;41.820;12.808;2024-03-02T08:04:41;9.70;99.90
32839;DHT22;19182;41.820;12.808;2024-03-02T08:07:06;9.70;99.90
32839;DHT22;19182;41.820;12.808;2024-03-02T08:11:58;9.60;99.90
32839;DHT22;19182;41.820;12.808;2024-03-02T08:14:24;9.60;99.90
32839;DHT22;19182;41.820;12.808;2024-03-02T08:16:50;9.60;99.90
32839;DHT22;19182;41.820;12.808;2024-03-02T08:19:16;9.70;99.90
32839;DHT22;19182;41.820;12.808;2024-03-02T08:21:46;9.60;99.90
32839;DHT22;19182;41.820;12.808;2024-03-02T08:24:12;9.80;99.90
32839;DHT22;19182;41.820;12.808;2024-03-02T08:26:38;9.80;99.90
32839;DHT22;19182;41.820;12.808;2024-03-02T08:29:04;9.70;99.90
32839;DHT22;19182;41.820;12.808;2024-03-02T08:31:30;9.70;99.90
32839;DHT22;19182;41.820;12.808;2024-03-02T08:33:56;9.70;99.90
32839;DHT22;19182;41.820;12.808;2024-03-02T08:36:23;9.70;99.90
32839;DHT22;19182;41.820;12.808;2024-03-02T08:38:54;9.70;99.90
32839;DHT22;19182;41.820;12.808;2024-03-02T08:41:20;9.60;99.90
32839;DHT22;19182;41.820;12.808;2024-03-02T08:43:46;10.00;99.90
32839;DHT22;19182;41.820;12.808;2024-03-02T08:46:12;10.00;99.90
32839;DHT22;19182;41.820;12.808;2024-03-02T08:48:39;10.20;99.90
32839;DHT22;19182;41.820;12.808;2024-03-02T08:51:05;10.30;99.90
32839;DHT22;19182;41.820;12.808;2024-03-02T08:53:36;10.30;99.90
32839;DHT22;19182;41.820;12.808;2024-03-02T08:56:03;10.40;99.90
32839;DHT22;19182;41.820;12.808;2024-03-02T08:58:31;10.70;99.90
32839;DHT22;19182;41.820;12.808;2024-03-02T09:00:57;11.20;99.90
32839;DHT22;19182;41.820;12.808;2024-03-02T09:03:23;11.20;99.90
32839;DHT22;19182;41.820;12.808;2024-03-02T09:05:49;11.20;99.90
32839;DHT22;19182;41.820;12.808;2024-03-02T09:08:15;11.10;99.90
32839;DHT22;19182;41.820;12.808;2024-03-02T09:10:40;11.20;99.90
32839;DHT22;19182;41.820;12.808;2024-03-02T09:13:06;11.10;99.90
32839;DHT22;19182;41.820;12.808;2024-03-02T09:15:32;11.30;99.90
32839;DHT22;19182;41.820;12.808;2024-03-02T09:17:58;11.50;99.90
32839;DHT22;19182;41.820;12.808;2024-03-02T09:22:54;11.60;99.90
32839;DHT22;19182;41.820;12.808;2024-03-02T09:25:20;11.60;99.90
32839;DHT22;19182;41.820;12.808;2024-03-02T09:27:46;11.70;99.90
32839;DHT22;19182;41.820;12.808;2024-03-02T09:30:12;11.50;99.90
32839;DHT22;19182;41.820;12.808;2024-03-02T09:32:39;11.40;99.90
32839;DHT22;19182;41.820;12.808;2024-03-02T09:37:31;11.90;99.90
32839;DHT22;19182;41.820;12.808;2024-03-02T09:39:57;12.60;99.90
32839;DHT22;19182;41.820;12.808;2024-03-02T09:42:23;13.50;99.90
32839;DHT22;19182;41.820;12.808;2024-03-02T09:44:49;13.80;99.90
32839;DHT22;19182;41.820;12.808;2024-03-02T09:47:15;13.80;99.90
32839;DHT22;19182;41.820;12.808;2024-03-02T09:49:44;13.80;99.90
32839;DHT22;19182;41.820;12.808;2024-03-02T09:52:10;13.70;99.90
32839;DHT22;19182;41.820;12.808;2024-03-02T09:54:36;15.60;99.90
32839;DHT22;19182;41.820;12.808;2024-03-02T09:57:03;16.20;99.90
32839;DHT22;19182;41.820;12.808;2024-03-02T09:59:30;16.20;99.90
32839;DHT22;19182;41.820;12.808;2024-03-02T10:02:02;15.60;99.90
32839;DHT22;19182;41.820;12.808;2024-03-02T10:04:29;15.20;99.90
32839;DHT22;19182;41.820;12.808;2024-03-02T10:07:10;14.00;99.90
32839;DHT22;19182;41.820;12.808;2024-03-02T10:09:42;14.00;99.90
32839;DHT22;19182;41.820;12.808;2024-03-02T10:12:09;13.70;99.90
32839;DHT22;19182;41.820;12.808;2024-03-02T10:14:35;13.60;99.90
32839;DHT22;19182;41.820;12.808;2024-03-02T10:17:12;13.90;99.90
32839;DHT22;19182;41.820;12.808;2024-03-02T10:19:38;14.30;99.90
32839;DHT22;19182;41.820;12.808;2024-03-02T10:22:06;16.30;99.90
32839;DHT22;19182;41.820;12.808;2024-03-02T10:24:36;16.80;99.90
32839;DHT22;19182;41.820;12.808;2024-03-02T10:27:07;17.00;99.90
32839;DHT22;19182;41.820;12.808;2024-03-02T10:29:37;18.30;99.90
32839;DHT22;19182;41.820;12.808;2024-03-02T10:32:09;18.70;99.90
32839;DHT22;19182;41.820;12.808;2024-03-02T10:34:37;18.40;99.90
32839;DHT22;19182;41.820;12.808;2024-03-02T10:37:03;18.20;99.90
32839;DHT22;19182;41.820;12.808;2024-03-02T10:39:29;18.20;99.90
32839;DHT22;19182;41.820;12.808;2024-03-02T10:41:57;19.10;99.90
32839;DHT22;19182;41.820;12.808;2024-03-02T10:44:23;19.00;99.90
32839;DHT22;19182;41.820;12.808;2024-03-02T10:46:51;19.30;99.90
32839;DHT22;19182;41.820;12.808;2024-03-02T10:49:19;19.30;99.90
32839;DHT22;19182;41.820;12.808;2024-03-02T10:51:46;19.70;99.90
32839;DHT22;19182;41.820;12.808;2024-03-02T10:54:12;19.60;99.90
32839;DHT22;19182;41.820;12.808;2024-03-02T11:00:03;20.20;99.90
32839;DHT22;19182;41.820;12.808;2024-03-02T11:02:30;20.10;99.90
32839;DHT22;19182;41.820;12.808;2024-03-02T11:07:23;20.30;99.90
32839;DHT22;19182;41.820;12.808;2024-03-02T11:10:09;20.10;99.90
32839;DHT22;19182;41.820;12.808;2024-03-02T11:12:52;20.80;99.90
32839;DHT22;19182;41.820;12.808;2024-03-02T11:15:18;20.70;99.90
32839;DHT22;19182;41.820;12.808;2024-03-02T11:17:47;20.00;99.90
32839;DHT22;19182;41.820;12.808;2024-03-02T11:20:14;19.70;99.90
32839;DHT22;19182;41.820;12.808;2024-03-02T11:25:26;17.60;99.90
32839;DHT22;19182;41.820;12.808;2024-03-02T11:32:59;19.10;99.90
32839;DHT22;19182;41.820;12.808;2024-03-02T11:35:26;19.20;99.90
32839;DHT22;19182;41.820;12.808;2024-03-02T11:37:53;19.50;99.90
32839;DHT22;19182;41.820;12.808;2024-03-02T11:40:22;19.90;99.90
32839;DHT22;19182;41.820;12.808;2024-03-02T11:42:48;19.90;99.90
32839;DHT22;19182;41.820;12.808;2024-03-02T11:45:21;18.60;99.90
32839;DHT22;19182;41.820;12.808;2024-03-02T11:48:08;18.30;99.90
32839;DHT22;19182;41.820;12.808;2024-03-02T11:53:08;18.10;99.90
32839;DHT22;19182;41.820;12.808;2024-03-02T11:55:35;18.40;99.90
32839;DHT22;19182;41.820;12.808;2024-03-02T11:58:12;19.60;99.90
32839;DHT22;19182;41.820;12.808;2024-03-02T12:00:38;19.40;99.90
32839;DHT22;19182;41.820;12.808;2024-03-02T12:03:06;19.00;99.90
32839;DHT22;19182;41.820;12.808;2024-03-02T12:05:32;19.00;99.90
32839;DHT22;19182;41.820;12.808;2024-03-02T12:08:00;18.70;99.90
32839;DHT22;19182;41.820;12.808;2024-03-02T12:10:27;17.90;99.90
32839;DHT22;19182;41.820;12.808;2024-03-02T12:15:27;15.70;99.90
32839;DHT22;19182;41.820;12.808;2024-03-02T12:17:56;16.70;99.90
32839;DHT22;19182;41.820;12.808;2024-03-02T12:20:23;16.70;99.90
32839;DHT22;19182;41.820;12.808;2024-03-02T12:22:57;16.00;99.90
32839;DHT22;19182;41.820;12.808;2024-03-02T12:25:24;15.50;99.90
32839;DHT22;19182;41.820;12.808;2024-03-02T12:27:53;15.40;99.90
32839;DHT22;19182;41.820;12.808;2024-03-02T12:30:21;15.20;99.90
32839;DHT22;19182;41.820;12.808;2024-03-02T12:32:47;14.90;99.90
32839;DHT22;19182;41.820;12.808;2024-03-02T12:35:15;14.70;99.90
32839;DHT22;19182;41.820;12.808;2024-03-02T12:37:46;14.50;99.90
32839;DHT22;19182;41.820;12.808;2024-03-02T12:40:16;14.40;99.90
32839;DHT22;19182;41.820;12.808;2024-03-02T12:42:46;14.30;99.90
32839;DHT22;19182;41.820;12.808;2024-03-02T12:45:16;14.20;99.90
32839;DHT22;19182;41.820;12.808;2024-03-02T12:47:42;14.20;99.90
32839;DHT22;19182;41.820;12.808;2024-03-02T12:50:09;13.80;99.90
32839;DHT22;19182;41.820;12.808;2024-03-02T12:52:35;13.80;99.90
32839;DHT22;19182;41.820;12.808;2024-03-02T12:55:03;13.80;99.90
32839;DHT22;19182;41.820;12.808;2024-03-02T12:57:30;13.90;99.90
32839;DHT22;19182;41.820;12.808;2024-03-02T12:59:59;14.10;99.90
32839;DHT22;19182;41.820;12.808;2024-03-02T13:02:30;14.10;99.90
32839;DHT22;19182;41.820;12.808;2024-03-02T13:04:57;14.10;99.90
32839;DHT22;19182;41.820;12.808;2024-03-02T13:07:24;14.40;99.90
32839;DHT22;19182;41.820;12.808;2024-03-02T13:09:51;14.40;99.90
32839;DHT22;19182;41.820;12.808;2024-03-02T13:12:19;14.60;99.90
32839;DHT22;19182;41.820;12.808;2024-03-02T13:14:49;14.70;99.90
32839;DHT22;19182;41.820;12.808;2024-03-02T13:17:17;14.60;99.90
32839;DHT22;19182;41.820;12.808;2024-03-02T13:19:55;14.60;99.90
32839;DHT22;19182;41.820;12.808;2024-03-02T13:22:21;14.40;99.90
32839;DHT22;19182;41.820;12.808;2024-03-02T13:24:50;14.40;99.90
32839;DHT22;19182;41.820;12.808;2024-03-02T13:27:17;14.30;99.90
32839;DHT22;19182;41.820;12.808;2024-03-02T13:29:46;14.60;99.90
32839;DHT22;19182;41.820;12.808;2024-03-02T13:32:14;14.60;99.90
32839;DHT22;19182;41.820;12.808;2024-03-02T13:34:40;14.60;99.90
32839;DHT22;19182;41.820;12.808;2024-03-02T13:37:06;14.60;99.90
32839;DHT22;19182;41.820;12.808;2024-03-02T13:44:33;14.60;99.90
32839;DHT22;19182;41.820;12.808;2024-03-02T13:47:00;14.60;99.90
32839;DHT22;19182;41.820;12.808;2024-03-02T13:49:26;14.70;99.90
32839;DHT22;19182;41.820;12.808;2024-03-02T13:52:00;14.70;99.90
32839;DHT22;19182;41.820;12.808;2024-03-02T13:54:28;14.60;99.90
32839;DHT22;19182;41.820;12.808;2024-03-02T13:59:24;14.60;99.90
32839;DHT22;19182;41.820;12.808;2024-03-02T14:01:50;14.20;99.90
32839;DHT22;19182;41.820;12.808;2024-03-02T14:04:16;14.10;99.90
32839;DHT22;19182;41.820;12.808;2024-03-02T14:06:43;13.90;99.90
32839;DHT22;19182;41.820;12.808;2024-03-02T14:09:10;13.90;99.90
32839;DHT22;19182;41.820;12.808;2024-03-02T14:11:35;13.80;99.90
32839;DHT22;19182;41.820;12.808;2024-03-02T14:14:04;13.80;99.90
32839;DHT22;19182;41.820;12.808;2024-03-02T14:16:29;13.90;99.90
32839;DHT22;19182;41.820;12.808;2024-03-02T14:18:56;13.90;99.90
32839;DHT22;19182;41.820;12.808;2024-03-02T14:21:22;14.00;99.90
32839;DHT22;19182;41.820;12.808;2024-03-02T14:23:47;14.10;99.90
32839;DHT22;19182;41.820;12.808;2024-03-02T14:26:13;14.10;99.90
32839;DHT22;19182;41.820;12.808;2024-03-02T14:28:39;14.10;99.90
32839;DHT22;19182;41.820;12.808;2024-03-02T14:31:06;14.20;99.90
32839;DHT22;19182;41.820;12.808;2024-03-02T14:33:31;14.30;99.90
32839;DHT22;19182;41.820;12.808;2024-03-02T14:35:57;14.50;99.90
32839;DHT22;19182;41.820;12.808;2024-03-02T14:38:23;14.40;99.90
32839;DHT22;19182;41.820;12.808;2024-03-02T14:40:49;14.50;99.90
32839;DHT22;19182;41.820;12.808;2024-03-02T14:43:14;14.40;99.90
32839;DHT22;19182;41.820;12.808;2024-03-02T14:45:40;14.50;99.90
32839;DHT22;19182;41.820;12.808;2024-03-02T14:48:06;14.70;99.90
32839;DHT22;19182;41.820;12.808;2024-03-02T14:50:32;14.80;99.90
32839;DHT22;19182;41.820;12.808;2024-03-02T14:52:58;14.80;99.90
32839;DHT22;19182;41.820;12.808;2024-03-02T14:55:25;14.80;99.90
32839;DHT22;19182;41.820;12.808;2024-03-02T14:57:54;14.70;99.90
32839;DHT22;19182;41.820;12.808;2024-03-02T15:00:20;14.70;99.90
32839;DHT22;19182;41.820;12.808;2024-03-02T15:02:46;14.80;99.90
32839;DHT22;19182;41.820;12.808;2024-03-02T15:05:12;14.80;99.90
32839;DHT22;19182;41.820;12.808;2024-03-02T15:07:38;14.80;99.90
32839;DHT22;19182;41.820;12.808;2024-03-02T15:10:04;14.80;99.90
32839;DHT22;19182;41.820;12.808;2024-03-02T15:12:30;14.70;99.90
32839;DHT22;19182;41.820;12.808;2024-03-02T15:14:56;14.50;99.90
32839;DHT22;19182;41.820;12.808;2024-03-02T15:17:22;14.50;99.90
32839;DHT22;19182;41.820;12.808;2024-03-02T15:19:48;14.50;99.90
32839;DHT22;19182;41.820;12.808;2024-03-02T15:22:15;14.30;99.90
32839;DHT22;19182;41.820;12.808;2024-03-02T15:24:47;14.50;99.90
32839;DHT22;19182;41.820;12.808;2024-03-02T15:27:13;14.50;99.90
32839;DHT22;19182;41.820;12.808;2024-03-02T15:29:39;13.60;99.90
32839;DHT22;19182;41.820;12.808;2024-03-02T15:32:08;14.30;99.90
32839;DHT22;19182;41.820;12.808;2024-03-02T15:34:34;14.30;99.90
32839;DHT22;19182;41.820;12.808;2024-03-02T15:37:00;14.20;99.90
32839;DHT22;19182;41.820;12.808;2024-03-02T15:39:26;14.20;99.90
32839;DHT22;19182;41.820;12.808;2024-03-02T15:41:52;14.20;99.90
32839;DHT22;19182;41.820;12.808;2024-03-02T15:44:18;14.10;99.90
32839;DHT22;19182;41.820;12.808;2024-03-02T15:46:44;14.10;99.90
32839;DHT22;19182;41.820;12.808;2024-03-02T15:49:10;14.20;99.90
32839;DHT22;19182;41.820;12.808;2024-03-02T15:51:36;13.90;99.90
32839;DHT22;19182;41.820;12.808;2024-03-02T15:54:07;13.90;99.90
32839;DHT22;19182;41.820;12.808;2024-03-02T15:58:59;13.60;99.90
32839;DHT22;19182;41.820;12.808;2024-03-02T16:08:48;13.70;99.90
32839;DHT22;19182;41.820;12.808;2024-03-02T16:13:40;13.60;99.90
32839;DHT22;19182;41.820;12.808;2024-03-02T16:16:10;13.60;99.90
32839;DHT22;19182;41.820;12.808;2024-03-02T16:21:02;13.60;99.90
32839;DHT22;19182;41.820;12.808;2024-03-02T16:23:30;13.60;99.90
32839;DHT22;19182;41.820;12.808;2024-03-02T16:25:56;13.50;99.90
32839;DHT22;19182;41.820;12.808;2024-03-02T16:33:15;13.30;99.90
32839;DHT22;19182;41.820;12.808;2024-03-02T16:40:37;13.00;99.90
32839;DHT22;19182;41.820;12.808;2024-03-02T16:45:30;12.90;99.90
32839;DHT22;19182;41.820;12.808;2024-03-02T16:47:57;12.90;99.90
32839;DHT22;19182;41.820;12.808;2024-03-02T16:50:22;12.80;99.90
32839;DHT22;19182;41.820;12.808;2024-03-02T16:52:48;12.80;99.90
32839;DHT22;19182;41.820;12.808;2024-03-02T16:55:14;12.80;99.90
32839;DHT22;19182;41.820;12.808;2024-03-02T16:57:40;12.70;99.90
32839;DHT22;19182;41.820;12.808;2024-03-02T17:07:26;12.40;99.90
32839;DHT22;19182;41.820;12.808;2024-03-02T17:24:36;11.60;99.90
32839;DHT22;19182;41.820;12.808;2024-03-02T17:34:25;11.20;99.90
32839;DHT22;19182;41.820;12.808;2024-03-02T17:44:14;11.10;99.90
32839;DHT22;19182;41.820;12.808;2024-03-02T17:53:58;11.00;99.90
32839;DHT22;19182;41.820;12.808;2024-03-02T18:01:19;10.80;99.90
32839;DHT22;19182;41.820;12.808;2024-03-02T18:06:13;10.90;99.90
32839;DHT22;19182;41.820;12.808;2024-03-02T18:08:39;10.90;99.90
32839;DHT22;19182;41.820;12.808;2024-03-02T18:11:05;10.70;99.90
32839;DHT22;19182;41.820;12.808;2024-03-02T18:13:32;10.70;99.90
32839;DHT22;19182;41.820;12.808;2024-03-02T18:28:16;10.30;99.90
32839;DHT22;19182;41.820;12.808;2024-03-02T18:30:47;10.10;99.90
32839;DHT22;19182;41.820;12.808;2024-03-02T18:35:48;9.90;99.90
32839;DHT22;19182;41.820;12.808;2024-03-02T18:38:31;9.90;99.90
32839;DHT22;19182;41.820;12.808;2024-03-02T18:41:01;9.70;99.90
32839;DHT22;19182;41.820;12.808;2024-03-02T18:48:34;9.50;99.90
32839;DHT22;19182;41.820;12.808;2024-03-02T19:13:25;8.90;99.90
32839;DHT22;19182;41.820;12.808;2024-03-02T19:33:02;8.70;99.90
32839;DHT22;19182;41.820;12.808;2024-03-02T20:02:32;8.60;99.90
32839;DHT22;19182;41.820;12.808;2024-03-02T20:39:17;7.30;99.90
32839;DHT22;19182;41.820;12.808;2024-03-02T20:41:43;7.20;99.90
32839;DHT22;19182;41.820;12.808;2024-03-02T20:59:01;7.10;99.90
32839;DHT22;19182;41.820;12.808;2024-03-02T21:01:28;7.10;99.90
32839;DHT22;19182;41.820;12.808;2024-03-02T21:45:31;7.10;99.90
32839;DHT22;19182;41.820;12.808;2024-03-02T21:47:57;7.30;99.90
32839;DHT22;19182;41.820;12.808;2024-03-02T22:19:55;7.80;99.90
32839;DHT22;19182;41.820;12.808;2024-03-02T22:24:47;7.90;99.90
32839;DHT22;19182;41.820;12.808;2024-03-02T22:32:06;7.90;99.90
32839;DHT22;19182;41.820;12.808;2024-03-02T22:46:44;8.30;99.90
32839;DHT22;19182;41.820;12.808;2024-03-02T23:01:27;8.50;99.90
32839;DHT22;19182;41.820;12.808;2024-03-02T23:13:41;8.60;99.90
32839;DHT22;19182;41.820;12.808;2024-03-02T23:16:07;8.60;99.90
32839;DHT22;19182;41.820;12.808;2024-03-02T23:25:55;8.80;99.90
32839;DHT22;19182;41.820;12.808;2024-03-02T23:33:13;8.90;99.90
32839;DHT22;19182;41.820;12.808;2024-03-02T23:40:31;8.90;99.90
